Terminal Aerodrome Forecast
Issued by NWS Milwaukee/Sullivan, WI

Home | Current Version | Previous Version | Text Only | Print | Product List | Glossary On
Versions: 1 2 3 4 5 6 7 8 9 10 11 12 13 14 15 16 17 18 19 20 21 22 23 24 25 26 27 28
000
FTUS43 KMKX 271120
TAFMKE
TAF
KMKE 271120Z 2712/2818 00000KT P6SM SKC
     FM271600 16006KT P6SM SCT060
     FM280300 16005KT P6SM BKN120
     FM280800 14009KT 5SM -RA BR OVC035
     FM281000 14012KT 3SM -RA BR OVC006
     FM281200 16012KT P6SM -SHRA OVC003
     FM281600 18010KT P6SM -SHRA OVC008=

USA.gov is the U.S. government's official web portal to all federal, state and local government web resources and services.